sensor_id;sensor_type;location;lat;lon;timestamp;P1;durP1;ratioP1;P2;durP2;ratioP2
46675;SDS011;32412;51.478;5.694;2024-02-28T00:00:37;81.95;;;27.08;;
46675;SDS011;32412;51.478;5.694;2024-02-28T00:03:03;77.03;;;27.05;;
46675;SDS011;32412;51.478;5.694;2024-02-28T00:05:31;73.10;;;26.75;;
46675;SDS011;32412;51.478;5.694;2024-02-28T00:07:57;65.93;;;24.80;;
46675;SDS011;32412;51.478;5.694;2024-02-28T00:10:22;67.82;;;24.40;;
46675;SDS011;32412;51.478;5.694;2024-02-28T00:12:48;73.85;;;24.77;;
46675;SDS011;32412;51.478;5.694;2024-02-28T00:15:14;70.35;;;24.85;;
46675;SDS011;32412;51.478;5.694;2024-02-28T00:17:40;71.70;;;26.38;;
46675;SDS011;32412;51.478;5.694;2024-02-28T00:20:07;69.10;;;25.63;;
46675;SDS011;32412;51.478;5.694;2024-02-28T00:22:34;71.43;;;26.10;;
46675;SDS011;32412;51.478;5.694;2024-02-28T00:25:01;74.50;;;26.15;;
46675;SDS011;32412;51.478;5.694;2024-02-28T00:27:26;63.67;;;24.95;;
46675;SDS011;32412;51.478;5.694;2024-02-28T00:29:52;63.70;;;23.52;;
46675;SDS011;32412;51.478;5.694;2024-02-28T00:32:18;72.72;;;26.05;;
46675;SDS011;32412;51.478;5.694;2024-02-28T00:34:43;64.13;;;25.60;;
46675;SDS011;32412;51.478;5.694;2024-02-28T00:37:09;62.83;;;24.67;;
46675;SDS011;32412;51.478;5.694;2024-02-28T00:39:35;63.30;;;25.73;;
46675;SDS011;32412;51.478;5.694;2024-02-28T00:42:00;67.63;;;25.33;;
46675;SDS011;32412;51.478;5.694;2024-02-28T00:44:26;70.55;;;26.65;;
46675;SDS011;32412;51.478;5.694;2024-02-28T00:46:51;74.90;;;26.25;;
46675;SDS011;32412;51.478;5.694;2024-02-28T00:49:17;75.25;;;27.00;;
46675;SDS011;32412;51.478;5.694;2024-02-28T00:51:43;77.68;;;26.70;;
46675;SDS011;32412;51.478;5.694;2024-02-28T00:54:08;79.60;;;26.45;;
46675;SDS011;32412;51.478;5.694;2024-02-28T00:56:34;74.88;;;27.90;;
46675;SDS011;32412;51.478;5.694;2024-02-28T00:59:00;68.72;;;25.60;;
46675;SDS011;32412;51.478;5.694;2024-02-28T01:01:26;75.25;;;27.27;;
46675;SDS011;32412;51.478;5.694;2024-02-28T01:03:51;78.03;;;30.52;;
46675;SDS011;32412;51.478;5.694;2024-02-28T01:06:17;85.82;;;29.77;;
46675;SDS011;32412;51.478;5.694;2024-02-28T01:08:42;79.45;;;29.92;;
46675;SDS011;32412;51.478;5.694;2024-02-28T01:11:08;80.68;;;29.10;;
46675;SDS011;32412;51.478;5.694;2024-02-28T01:13:34;79.82;;;28.92;;
46675;SDS011;32412;51.478;5.694;2024-02-28T01:16:00;79.47;;;29.08;;
46675;SDS011;32412;51.478;5.694;2024-02-28T01:18:26;88.25;;;31.88;;
46675;SDS011;32412;51.478;5.694;2024-02-28T01:20:55;83.05;;;29.55;;
46675;SDS011;32412;51.478;5.694;2024-02-28T01:23:21;83.70;;;30.42;;
46675;SDS011;32412;51.478;5.694;2024-02-28T01:25:47;90.38;;;30.73;;
46675;SDS011;32412;51.478;5.694;2024-02-28T01:28:12;93.70;;;31.83;;
46675;SDS011;32412;51.478;5.694;2024-02-28T01:30:38;93.00;;;31.38;;
46675;SDS011;32412;51.478;5.694;2024-02-28T01:33:04;84.00;;;29.75;;
46675;SDS011;32412;51.478;5.694;2024-02-28T01:35:29;79.45;;;29.08;;
46675;SDS011;32412;51.478;5.694;2024-02-28T01:37:55;85.13;;;31.38;;
46675;SDS011;32412;51.478;5.694;2024-02-28T01:40:21;79.50;;;29.65;;
46675;SDS011;32412;51.478;5.694;2024-02-28T01:42:47;93.30;;;30.77;;
46675;SDS011;32412;51.478;5.694;2024-02-28T01:45:13;76.85;;;29.40;;
46675;SDS011;32412;51.478;5.694;2024-02-28T01:47:40;93.50;;;31.63;;
46675;SDS011;32412;51.478;5.694;2024-02-28T01:50:11;93.70;;;31.73;;
46675;SDS011;32412;51.478;5.694;2024-02-28T01:52:38;90.63;;;31.20;;
46675;SDS011;32412;51.478;5.694;2024-02-28T01:55:05;88.60;;;30.00;;
46675;SDS011;32412;51.478;5.694;2024-02-28T01:57:31;91.28;;;31.10;;
46675;SDS011;32412;51.478;5.694;2024-02-28T01:59:58;91.30;;;30.67;;
46675;SDS011;32412;51.478;5.694;2024-02-28T02:02:24;98.35;;;29.77;;
46675;SDS011;32412;51.478;5.694;2024-02-28T02:04:50;90.50;;;29.23;;
46675;SDS011;32412;51.478;5.694;2024-02-28T02:07:18;89.93;;;30.75;;
46675;SDS011;32412;51.478;5.694;2024-02-28T02:09:44;87.10;;;29.77;;
46675;SDS011;32412;51.478;5.694;2024-02-28T02:12:11;93.38;;;30.65;;
46675;SDS011;32412;51.478;5.694;2024-02-28T02:14:37;89.30;;;31.77;;
46675;SDS011;32412;51.478;5.694;2024-02-28T02:17:02;90.65;;;28.58;;
46675;SDS011;32412;51.478;5.694;2024-02-28T02:19:28;91.68;;;29.25;;
46675;SDS011;32412;51.478;5.694;2024-02-28T02:21:56;91.30;;;30.30;;
46675;SDS011;32412;51.478;5.694;2024-02-28T02:24:23;96.28;;;30.33;;
46675;SDS011;32412;51.478;5.694;2024-02-28T02:26:49;82.63;;;29.45;;
46675;SDS011;32412;51.478;5.694;2024-02-28T02:29:17;91.30;;;31.33;;
46675;SDS011;32412;51.478;5.694;2024-02-28T02:31:42;99.18;;;33.08;;
46675;SDS011;32412;51.478;5.694;2024-02-28T02:34:08;93.28;;;32.33;;
46675;SDS011;32412;51.478;5.694;2024-02-28T02:36:34;96.13;;;34.38;;
46675;SDS011;32412;51.478;5.694;2024-02-28T02:38:59;101.05;;;33.20;;
46675;SDS011;32412;51.478;5.694;2024-02-28T02:41:25;97.25;;;32.53;;
46675;SDS011;32412;51.478;5.694;2024-02-28T02:43:51;106.10;;;33.28;;
46675;SDS011;32412;51.478;5.694;2024-02-28T02:46:17;109.85;;;32.55;;
46675;SDS011;32412;51.478;5.694;2024-02-28T02:48:43;107.18;;;33.13;;
46675;SDS011;32412;51.478;5.694;2024-02-28T02:51:08;102.60;;;32.47;;
46675;SDS011;32412;51.478;5.694;2024-02-28T02:53:34;133.15;;;33.42;;
46675;SDS011;32412;51.478;5.694;2024-02-28T02:56:00;113.90;;;32.67;;
46675;SDS011;32412;51.478;5.694;2024-02-28T02:58:28;131.00;;;32.17;;
46675;SDS011;32412;51.478;5.694;2024-02-28T03:00:54;102.97;;;29.60;;
46675;SDS011;32412;51.478;5.694;2024-02-28T03:03:19;87.95;;;27.70;;
46675;SDS011;32412;51.478;5.694;2024-02-28T03:05:45;92.00;;;30.20;;
46675;SDS011;32412;51.478;5.694;2024-02-28T03:08:11;103.90;;;29.48;;
46675;SDS011;32412;51.478;5.694;2024-02-28T03:10:36;111.38;;;29.60;;
46675;SDS011;32412;51.478;5.694;2024-02-28T03:13:02;94.78;;;30.17;;
46675;SDS011;32412;51.478;5.694;2024-02-28T03:15:28;141.15;;;31.00;;
46675;SDS011;32412;51.478;5.694;2024-02-28T03:17:54;122.68;;;31.77;;
46675;SDS011;32412;51.478;5.694;2024-02-28T03:20:19;132.32;;;31.27;;
46675;SDS011;32412;51.478;5.694;2024-02-28T03:22:46;91.45;;;30.30;;
46675;SDS011;32412;51.478;5.694;2024-02-28T03:25:12;95.72;;;28.48;;
46675;SDS011;32412;51.478;5.694;2024-02-28T03:27:37;96.80;;;30.83;;
46675;SDS011;32412;51.478;5.694;2024-02-28T03:30:03;92.82;;;30.88;;
46675;SDS011;32412;51.478;5.694;2024-02-28T03:32:29;93.03;;;30.35;;
46675;SDS011;32412;51.478;5.694;2024-02-28T03:34:56;88.72;;;30.95;;
46675;SDS011;32412;51.478;5.694;2024-02-28T03:37:22;85.70;;;30.55;;
46675;SDS011;32412;51.478;5.694;2024-02-28T03:39:47;78.18;;;30.25;;
46675;SDS011;32412;51.478;5.694;2024-02-28T03:42:13;84.90;;;30.75;;
46675;SDS011;32412;51.478;5.694;2024-02-28T03:44:39;78.07;;;30.70;;
46675;SDS011;32412;51.478;5.694;2024-02-28T03:47:04;79.97;;;31.15;;
46675;SDS011;32412;51.478;5.694;2024-02-28T03:49:34;105.63;;;31.15;;
46675;SDS011;32412;51.478;5.694;2024-02-28T03:51:59;91.63;;;31.52;;
46675;SDS011;32412;51.478;5.694;2024-02-28T03:54:26;98.55;;;31.77;;
46675;SDS011;32412;51.478;5.694;2024-02-28T03:56:52;96.22;;;32.17;;
46675;SDS011;32412;51.478;5.694;2024-02-28T03:59:17;83.57;;;32.05;;
46675;SDS011;32412;51.478;5.694;2024-02-28T04:01:44;93.82;;;32.30;;
46675;SDS011;32412;51.478;5.694;2024-02-28T04:04:09;85.30;;;31.98;;
46675;SDS011;32412;51.478;5.694;2024-02-28T04:06:35;88.90;;;31.80;;
46675;SDS011;32412;51.478;5.694;2024-02-28T04:09:01;109.60;;;34.65;;
46675;SDS011;32412;51.478;5.694;2024-02-28T04:11:28;94.95;;;32.88;;
46675;SDS011;32412;51.478;5.694;2024-02-28T04:13:54;102.30;;;32.55;;
46675;SDS011;32412;51.478;5.694;2024-02-28T04:16:20;96.78;;;33.05;;
46675;SDS011;32412;51.478;5.694;2024-02-28T04:18:46;100.57;;;32.13;;
46675;SDS011;32412;51.478;5.694;2024-02-28T04:21:14;102.93;;;32.17;;
46675;SDS011;32412;51.478;5.694;2024-02-28T04:23:40;94.35;;;32.83;;
46675;SDS011;32412;51.478;5.694;2024-02-28T04:26:07;97.53;;;32.25;;
46675;SDS011;32412;51.478;5.694;2024-02-28T04:28:32;100.95;;;31.60;;
46675;SDS011;32412;51.478;5.694;2024-02-28T04:30:58;109.72;;;33.42;;
46675;SDS011;32412;51.478;5.694;2024-02-28T04:33:25;103.68;;;32.88;;
46675;SDS011;32412;51.478;5.694;2024-02-28T04:35:50;115.82;;;33.97;;
46675;SDS011;32412;51.478;5.694;2024-02-28T04:38:16;104.53;;;34.30;;
46675;SDS011;32412;51.478;5.694;2024-02-28T04:40:42;134.18;;;35.08;;
46675;SDS011;32412;51.478;5.694;2024-02-28T04:43:08;125.25;;;36.10;;
46675;SDS011;32412;51.478;5.694;2024-02-28T04:45:33;126.40;;;35.58;;
46675;SDS011;32412;51.478;5.694;2024-02-28T04:47:59;118.47;;;35.13;;
46675;SDS011;32412;51.478;5.694;2024-02-28T04:50:27;144.57;;;37.10;;
46675;SDS011;32412;51.478;5.694;2024-02-28T04:52:53;133.45;;;36.65;;
46675;SDS011;32412;51.478;5.694;2024-02-28T04:55:20;129.48;;;36.80;;
46675;SDS011;32412;51.478;5.694;2024-02-28T04:57:46;145.38;;;37.70;;
46675;SDS011;32412;51.478;5.694;2024-02-28T05:00:12;127.55;;;35.88;;
46675;SDS011;32412;51.478;5.694;2024-02-28T05:02:38;121.47;;;36.38;;
46675;SDS011;32412;51.478;5.694;2024-02-28T05:05:03;124.10;;;35.08;;
46675;SDS011;32412;51.478;5.694;2024-02-28T05:07:30;122.25;;;34.67;;
46675;SDS011;32412;51.478;5.694;2024-02-28T05:09:55;111.60;;;32.47;;
46675;SDS011;32412;51.478;5.694;2024-02-28T05:12:21;122.47;;;34.85;;
46675;SDS011;32412;51.478;5.694;2024-02-28T05:14:47;113.80;;;35.28;;
46675;SDS011;32412;51.478;5.694;2024-02-28T05:17:12;98.25;;;34.03;;
46675;SDS011;32412;51.478;5.694;2024-02-28T05:19:38;100.85;;;32.72;;
46675;SDS011;32412;51.478;5.694;2024-02-28T05:22:07;101.25;;;35.60;;
46675;SDS011;32412;51.478;5.694;2024-02-28T05:24:34;101.35;;;32.85;;
46675;SDS011;32412;51.478;5.694;2024-02-28T05:27:00;104.10;;;33.13;;
46675;SDS011;32412;51.478;5.694;2024-02-28T05:29:29;102.03;;;35.10;;
46675;SDS011;32412;51.478;5.694;2024-02-28T05:31:55;106.15;;;34.22;;
46675;SDS011;32412;51.478;5.694;2024-02-28T05:34:20;109.40;;;33.78;;
46675;SDS011;32412;51.478;5.694;2024-02-28T05:36:47;98.80;;;33.83;;
46675;SDS011;32412;51.478;5.694;2024-02-28T05:39:13;102.05;;;34.03;;
46675;SDS011;32412;51.478;5.694;2024-02-28T05:41:39;106.03;;;36.40;;
46675;SDS011;32412;51.478;5.694;2024-02-28T05:44:05;105.88;;;35.60;;
46675;SDS011;32412;51.478;5.694;2024-02-28T05:46:31;102.60;;;35.78;;
46675;SDS011;32412;51.478;5.694;2024-02-28T05:48:57;102.07;;;34.92;;
46675;SDS011;32412;51.478;5.694;2024-02-28T05:51:23;101.50;;;35.33;;
46675;SDS011;32412;51.478;5.694;2024-02-28T05:53:49;109.57;;;36.42;;
46675;SDS011;32412;51.478;5.694;2024-02-28T05:56:16;107.28;;;36.03;;
46675;SDS011;32412;51.478;5.694;2024-02-28T05:58:44;107.97;;;37.00;;
46675;SDS011;32412;51.478;5.694;2024-02-28T06:01:11;101.30;;;36.05;;
46675;SDS011;32412;51.478;5.694;2024-02-28T06:03:37;100.00;;;34.72;;
46675;SDS011;32412;51.478;5.694;2024-02-28T06:06:03;101.22;;;33.85;;
46675;SDS011;32412;51.478;5.694;2024-02-28T06:08:32;97.43;;;35.50;;
46675;SDS011;32412;51.478;5.694;2024-02-28T06:10:59;98.00;;;34.90;;
46675;SDS011;32412;51.478;5.694;2024-02-28T06:13:25;88.35;;;33.00;;
46675;SDS011;32412;51.478;5.694;2024-02-28T06:15:52;100.97;;;34.08;;
46675;SDS011;32412;51.478;5.694;2024-02-28T06:18:17;97.68;;;34.67;;
46675;SDS011;32412;51.478;5.694;2024-02-28T06:20:43;101.95;;;34.38;;
46675;SDS011;32412;51.478;5.694;2024-02-28T06:23:09;87.93;;;32.53;;
46675;SDS011;32412;51.478;5.694;2024-02-28T06:25:35;93.65;;;32.55;;
46675;SDS011;32412;51.478;5.694;2024-02-28T06:28:00;94.07;;;34.47;;
46675;SDS011;32412;51.478;5.694;2024-02-28T06:30:31;89.28;;;33.28;;
46675;SDS011;32412;51.478;5.694;2024-02-28T06:33:01;99.10;;;34.17;;
46675;SDS011;32412;51.478;5.694;2024-02-28T06:35:27;87.10;;;30.83;;
46675;SDS011;32412;51.478;5.694;2024-02-28T06:37:53;85.97;;;33.00;;
46675;SDS011;32412;51.478;5.694;2024-02-28T06:40:19;86.47;;;31.77;;
46675;SDS011;32412;51.478;5.694;2024-02-28T06:42:45;77.03;;;30.10;;
46675;SDS011;32412;51.478;5.694;2024-02-28T06:45:11;81.13;;;32.08;;
46675;SDS011;32412;51.478;5.694;2024-02-28T06:47:37;79.13;;;31.85;;
46675;SDS011;32412;51.478;5.694;2024-02-28T06:50:03;86.50;;;33.08;;
46675;SDS011;32412;51.478;5.694;2024-02-28T06:52:30;79.82;;;30.00;;
46675;SDS011;32412;51.478;5.694;2024-02-28T06:54:56;88.47;;;30.90;;
46675;SDS011;32412;51.478;5.694;2024-02-28T06:57:22;74.95;;;30.25;;
46675;SDS011;32412;51.478;5.694;2024-02-28T06:59:47;78.00;;;29.73;;
46675;SDS011;32412;51.478;5.694;2024-02-28T07:02:14;79.25;;;30.63;;
46675;SDS011;32412;51.478;5.694;2024-02-28T07:04:41;78.00;;;31.80;;
46675;SDS011;32412;51.478;5.694;2024-02-28T07:07:07;79.97;;;28.75;;
46675;SDS011;32412;51.478;5.694;2024-02-28T07:09:33;81.78;;;32.15;;
46675;SDS011;32412;51.478;5.694;2024-02-28T07:18:12;80.00;;;30.02;;
46675;SDS011;32412;51.478;5.694;2024-02-28T07:20:38;82.50;;;30.40;;
46675;SDS011;32412;51.478;5.694;2024-02-28T07:23:04;78.25;;;31.58;;
46675;SDS011;32412;51.478;5.694;2024-02-28T07:25:29;80.90;;;31.25;;
46675;SDS011;32412;51.478;5.694;2024-02-28T07:27:57;75.70;;;29.58;;
46675;SDS011;32412;51.478;5.694;2024-02-28T07:30:27;73.95;;;29.85;;
46675;SDS011;32412;51.478;5.694;2024-02-28T07:32:53;76.15;;;30.50;;
46675;SDS011;32412;51.478;5.694;2024-02-28T07:35:19;78.78;;;30.80;;
46675;SDS011;32412;51.478;5.694;2024-02-28T07:37:46;73.10;;;30.20;;
46675;SDS011;32412;51.478;5.694;2024-02-28T07:40:12;68.90;;;29.33;;
46675;SDS011;32412;51.478;5.694;2024-02-28T07:42:37;73.85;;;29.23;;
46675;SDS011;32412;51.478;5.694;2024-02-28T07:45:03;74.22;;;29.55;;
46675;SDS011;32412;51.478;5.694;2024-02-28T07:47:29;73.53;;;29.38;;
46675;SDS011;32412;51.478;5.694;2024-02-28T07:49:56;77.45;;;29.08;;
46675;SDS011;32412;51.478;5.694;2024-02-28T07:52:21;72.55;;;28.95;;
46675;SDS011;32412;51.478;5.694;2024-02-28T07:54:48;73.95;;;30.38;;
46675;SDS011;32412;51.478;5.694;2024-02-28T07:57:14;72.07;;;28.50;;
46675;SDS011;32412;51.478;5.694;2024-02-28T07:59:41;75.25;;;29.58;;
46675;SDS011;32412;51.478;5.694;2024-02-28T08:02:07;69.55;;;28.00;;
46675;SDS011;32412;51.478;5.694;2024-02-28T08:04:33;70.05;;;27.42;;
46675;SDS011;32412;51.478;5.694;2024-02-28T08:06:59;67.30;;;28.65;;
46675;SDS011;32412;51.478;5.694;2024-02-28T08:09:25;75.22;;;29.98;;
46675;SDS011;32412;51.478;5.694;2024-02-28T08:11:51;63.38;;;27.20;;
46675;SDS011;32412;51.478;5.694;2024-02-28T08:14:17;66.35;;;27.92;;
46675;SDS011;32412;51.478;5.694;2024-02-28T08:16:42;56.75;;;25.58;;
46675;SDS011;32412;51.478;5.694;2024-02-28T08:19:08;67.50;;;27.30;;
46675;SDS011;32412;51.478;5.694;2024-02-28T08:21:34;60.47;;;26.63;;
46675;SDS011;32412;51.478;5.694;2024-02-28T08:23:59;63.22;;;26.45;;
46675;SDS011;32412;51.478;5.694;2024-02-28T08:26:28;59.42;;;27.35;;
46675;SDS011;32412;51.478;5.694;2024-02-28T08:28:55;60.10;;;25.40;;
46675;SDS011;32412;51.478;5.694;2024-02-28T08:31:21;56.45;;;25.80;;
46675;SDS011;32412;51.478;5.694;2024-02-28T08:33:46;55.53;;;24.38;;
46675;SDS011;32412;51.478;5.694;2024-02-28T08:36:12;61.33;;;26.40;;
46675;SDS011;32412;51.478;5.694;2024-02-28T08:38:37;53.03;;;24.23;;
46675;SDS011;32412;51.478;5.694;2024-02-28T08:41:04;53.97;;;23.77;;
46675;SDS011;32412;51.478;5.694;2024-02-28T08:43:30;51.10;;;23.63;;
46675;SDS011;32412;51.478;5.694;2024-02-28T08:45:55;52.15;;;24.63;;
46675;SDS011;32412;51.478;5.694;2024-02-28T08:48:21;51.72;;;23.20;;
46675;SDS011;32412;51.478;5.694;2024-02-28T08:50:48;55.55;;;23.83;;
46675;SDS011;32412;51.478;5.694;2024-02-28T08:53:13;53.85;;;22.50;;
46675;SDS011;32412;51.478;5.694;2024-02-28T08:55:39;47.05;;;22.50;;
46675;SDS011;32412;51.478;5.694;2024-02-28T08:58:05;54.80;;;23.17;;
46675;SDS011;32412;51.478;5.694;2024-02-28T09:00:30;55.78;;;23.45;;
46675;SDS011;32412;51.478;5.694;2024-02-28T09:02:56;49.53;;;21.15;;
46675;SDS011;32412;51.478;5.694;2024-02-28T09:05:22;46.28;;;22.42;;
46675;SDS011;32412;51.478;5.694;2024-02-28T09:07:48;43.90;;;22.40;;
46675;SDS011;32412;51.478;5.694;2024-02-28T09:10:16;42.92;;;19.80;;
46675;SDS011;32412;51.478;5.694;2024-02-28T09:12:48;40.63;;;20.35;;
46675;SDS011;32412;51.478;5.694;2024-02-28T09:15:14;41.30;;;19.52;;
46675;SDS011;32412;51.478;5.694;2024-02-28T09:17:40;41.40;;;19.42;;
46675;SDS011;32412;51.478;5.694;2024-02-28T09:20:06;38.05;;;19.27;;
46675;SDS011;32412;51.478;5.694;2024-02-28T09:22:33;36.78;;;19.98;;
46675;SDS011;32412;51.478;5.694;2024-02-28T09:24:59;38.83;;;19.35;;
46675;SDS011;32412;51.478;5.694;2024-02-28T09:27:27;38.75;;;19.65;;
46675;SDS011;32412;51.478;5.694;2024-02-28T09:29:53;40.25;;;19.92;;
46675;SDS011;32412;51.478;5.694;2024-02-28T09:32:18;42.08;;;19.92;;
46675;SDS011;32412;51.478;5.694;2024-02-28T09:34:44;36.50;;;18.60;;
46675;SDS011;32412;51.478;5.694;2024-02-28T09:37:10;37.38;;;18.52;;
46675;SDS011;32412;51.478;5.694;2024-02-28T09:39:37;38.42;;;19.38;;
46675;SDS011;32412;51.478;5.694;2024-02-28T09:42:05;35.38;;;18.65;;
46675;SDS011;32412;51.478;5.694;2024-02-28T09:44:32;32.08;;;17.20;;
46675;SDS011;32412;51.478;5.694;2024-02-28T09:46:58;34.15;;;16.58;;
46675;SDS011;32412;51.478;5.694;2024-02-28T09:49:24;34.40;;;17.85;;
46675;SDS011;32412;51.478;5.694;2024-02-28T09:51:52;33.88;;;16.63;;
46675;SDS011;32412;51.478;5.694;2024-02-28T09:54:18;34.38;;;17.55;;
46675;SDS011;32412;51.478;5.694;2024-02-28T09:56:47;31.23;;;17.35;;
46675;SDS011;32412;51.478;5.694;2024-02-28T09:59:13;29.40;;;16.83;;
46675;SDS011;32412;51.478;5.694;2024-02-28T10:01:42;29.63;;;16.30;;
46675;SDS011;32412;51.478;5.694;2024-02-28T10:04:11;33.47;;;17.65;;
46675;SDS011;32412;51.478;5.694;2024-02-28T10:06:41;36.05;;;17.63;;
46675;SDS011;32412;51.478;5.694;2024-02-28T10:09:07;28.30;;;16.88;;
46675;SDS011;32412;51.478;5.694;2024-02-28T10:11:33;30.63;;;16.23;;
46675;SDS011;32412;51.478;5.694;2024-02-28T10:14:00;28.17;;;16.73;;
46675;SDS011;32412;51.478;5.694;2024-02-28T10:16:27;30.98;;;17.40;;
46675;SDS011;32412;51.478;5.694;2024-02-28T10:18:52;30.13;;;15.35;;
46675;SDS011;32412;51.478;5.694;2024-02-28T10:21:18;26.58;;;15.48;;
46675;SDS011;32412;51.478;5.694;2024-02-28T10:23:44;28.30;;;15.60;;
46675;SDS011;32412;51.478;5.694;2024-02-28T10:26:13;30.75;;;17.00;;
46675;SDS011;32412;51.478;5.694;2024-02-28T10:28:42;30.05;;;15.20;;
46675;SDS011;32412;51.478;5.694;2024-02-28T10:31:10;30.98;;;17.38;;
46675;SDS011;32412;51.478;5.694;2024-02-28T10:33:36;28.92;;;17.77;;
46675;SDS011;32412;51.478;5.694;2024-02-28T10:36:04;31.90;;;17.30;;
46675;SDS011;32412;51.478;5.694;2024-02-28T10:38:31;26.75;;;15.13;;
46675;SDS011;32412;51.478;5.694;2024-02-28T10:41:03;31.25;;;17.02;;
46675;SDS011;32412;51.478;5.694;2024-02-28T10:43:29;27.30;;;15.80;;
46675;SDS011;32412;51.478;5.694;2024-02-28T10:45:59;27.80;;;15.63;;
46675;SDS011;32412;51.478;5.694;2024-02-28T10:48:25;30.08;;;16.27;;
46675;SDS011;32412;51.478;5.694;2024-02-28T10:50:51;30.52;;;15.63;;
46675;SDS011;32412;51.478;5.694;2024-02-28T10:53:20;26.38;;;15.93;;
46675;SDS011;32412;51.478;5.694;2024-02-28T10:56:07;29.60;;;15.52;;
46675;SDS011;32412;51.478;5.694;2024-02-28T10:58:36;30.23;;;14.93;;
46675;SDS011;32412;51.478;5.694;2024-02-28T11:01:15;27.80;;;14.70;;
46675;SDS011;32412;51.478;5.694;2024-02-28T11:03:42;32.58;;;15.82;;
46675;SDS011;32412;51.478;5.694;2024-02-28T11:06:19;30.48;;;15.10;;
46675;SDS011;32412;51.478;5.694;2024-02-28T11:08:49;29.48;;;15.73;;
46675;SDS011;32412;51.478;5.694;2024-02-28T11:11:21;28.27;;;15.48;;
46675;SDS011;32412;51.478;5.694;2024-02-28T11:13:57;29.30;;;16.00;;
46675;SDS011;32412;51.478;5.694;2024-02-28T11:18:57;33.05;;;16.75;;
46675;SDS011;32412;51.478;5.694;2024-02-28T11:21:27;31.17;;;15.65;;
46675;SDS011;32412;51.478;5.694;2024-02-28T11:23:57;29.98;;;15.95;;
46675;SDS011;32412;51.478;5.694;2024-02-28T11:26:24;29.10;;;15.55;;
46675;SDS011;32412;51.478;5.694;2024-02-28T11:28:50;32.53;;;16.67;;
46675;SDS011;32412;51.478;5.694;2024-02-28T11:31:16;30.23;;;16.02;;
46675;SDS011;32412;51.478;5.694;2024-02-28T11:33:43;28.27;;;16.00;;
46675;SDS011;32412;51.478;5.694;2024-02-28T11:36:11;33.05;;;16.75;;
46675;SDS011;32412;51.478;5.694;2024-02-28T11:38:38;34.88;;;17.30;;
46675;SDS011;32412;51.478;5.694;2024-02-28T11:41:04;32.05;;;16.27;;
46675;SDS011;32412;51.478;5.694;2024-02-28T11:43:31;39.05;;;17.83;;
46675;SDS011;32412;51.478;5.694;2024-02-28T11:45:57;31.63;;;17.58;;
46675;SDS011;32412;51.478;5.694;2024-02-28T11:48:24;34.13;;;17.27;;
46675;SDS011;32412;51.478;5.694;2024-02-28T11:50:52;31.45;;;17.77;;
46675;SDS011;32412;51.478;5.694;2024-02-28T11:53:18;31.60;;;16.15;;
46675;SDS011;32412;51.478;5.694;2024-02-28T11:55:47;39.20;;;17.08;;
46675;SDS011;32412;51.478;5.694;2024-02-28T11:58:14;36.05;;;16.48;;
46675;SDS011;32412;51.478;5.694;2024-02-28T12:00:47;33.42;;;16.33;;
46675;SDS011;32412;51.478;5.694;2024-02-28T12:03:12;29.88;;;15.43;;
46675;SDS011;32412;51.478;5.694;2024-02-28T12:05:38;29.15;;;14.82;;
46675;SDS011;32412;51.478;5.694;2024-02-28T12:08:05;26.52;;;13.45;;
46675;SDS011;32412;51.478;5.694;2024-02-28T12:10:31;28.65;;;14.68;;
46675;SDS011;32412;51.478;5.694;2024-02-28T12:13:00;24.70;;;13.95;;
46675;SDS011;32412;51.478;5.694;2024-02-28T12:15:28;27.67;;;14.15;;
46675;SDS011;32412;51.478;5.694;2024-02-28T12:17:54;26.90;;;13.63;;
46675;SDS011;32412;51.478;5.694;2024-02-28T12:20:20;35.67;;;14.13;;
46675;SDS011;32412;51.478;5.694;2024-02-28T12:22:46;29.63;;;14.95;;
46675;SDS011;32412;51.478;5.694;2024-02-28T12:25:11;36.38;;;15.73;;
46675;SDS011;32412;51.478;5.694;2024-02-28T12:27:37;31.00;;;15.82;;
46675;SDS011;32412;51.478;5.694;2024-02-28T12:30:03;34.30;;;16.38;;
46675;SDS011;32412;51.478;5.694;2024-02-28T12:32:32;36.03;;;16.33;;
46675;SDS011;32412;51.478;5.694;2024-02-28T12:34:57;33.50;;;16.52;;
46675;SDS011;32412;51.478;5.694;2024-02-28T12:37:23;34.47;;;16.83;;
46675;SDS011;32412;51.478;5.694;2024-02-28T12:39:49;35.40;;;17.27;;
46675;SDS011;32412;51.478;5.694;2024-02-28T12:42:16;33.95;;;17.20;;
46675;SDS011;32412;51.478;5.694;2024-02-28T12:44:42;33.60;;;16.65;;
46675;SDS011;32412;51.478;5.694;2024-02-28T12:47:11;34.42;;;17.20;;
46675;SDS011;32412;51.478;5.694;2024-02-28T12:49:37;32.60;;;15.02;;
46675;SDS011;32412;51.478;5.694;2024-02-28T12:52:03;30.90;;;15.73;;
46675;SDS011;32412;51.478;5.694;2024-02-28T12:54:29;30.92;;;13.93;;
46675;SDS011;32412;51.478;5.694;2024-02-28T12:56:55;26.42;;;12.65;;
46675;SDS011;32412;51.478;5.694;2024-02-28T12:59:21;29.35;;;13.70;;
46675;SDS011;32412;51.478;5.694;2024-02-28T13:01:47;29.02;;;11.90;;
46675;SDS011;32412;51.478;5.694;2024-02-28T13:04:15;25.67;;;13.00;;
46675;SDS011;32412;51.478;5.694;2024-02-28T13:06:41;24.60;;;11.70;;
46675;SDS011;32412;51.478;5.694;2024-02-28T13:09:07;29.08;;;13.10;;
46675;SDS011;32412;51.478;5.694;2024-02-28T13:11:38;26.83;;;12.45;;
46675;SDS011;32412;51.478;5.694;2024-02-28T13:14:03;25.08;;;11.82;;
46675;SDS011;32412;51.478;5.694;2024-02-28T13:16:29;24.75;;;11.30;;
46675;SDS011;32412;51.478;5.694;2024-02-28T13:18:55;25.58;;;12.02;;
46675;SDS011;32412;51.478;5.694;2024-02-28T13:21:21;28.33;;;12.63;;
46675;SDS011;32412;51.478;5.694;2024-02-28T13:23:46;28.70;;;13.93;;
46675;SDS011;32412;51.478;5.694;2024-02-28T13:26:12;30.38;;;13.35;;
46675;SDS011;32412;51.478;5.694;2024-02-28T13:28:44;28.85;;;13.10;;
46675;SDS011;32412;51.478;5.694;2024-02-28T13:31:10;26.13;;;12.80;;
46675;SDS011;32412;51.478;5.694;2024-02-28T13:33:39;34.03;;;12.98;;
46675;SDS011;32412;51.478;5.694;2024-02-28T13:36:06;27.95;;;13.63;;
46675;SDS011;32412;51.478;5.694;2024-02-28T13:38:32;30.17;;;12.93;;
46675;SDS011;32412;51.478;5.694;2024-02-28T13:40:58;24.00;;;11.52;;
46675;SDS011;32412;51.478;5.694;2024-02-28T13:43:26;24.63;;;12.82;;
46675;SDS011;32412;51.478;5.694;2024-02-28T13:45:52;24.63;;;12.23;;
46675;SDS011;32412;51.478;5.694;2024-02-28T13:48:21;22.58;;;12.10;;
46675;SDS011;32412;51.478;5.694;2024-02-28T13:50:49;29.17;;;13.90;;
46675;SDS011;32412;51.478;5.694;2024-02-28T13:53:15;22.63;;;11.43;;
46675;SDS011;32412;51.478;5.694;2024-02-28T13:55:44;25.02;;;11.77;;
46675;SDS011;32412;51.478;5.694;2024-02-28T13:58:11;23.73;;;12.60;;
46675;SDS011;32412;51.478;5.694;2024-02-28T14:00:37;27.25;;;14.10;;
46675;SDS011;32412;51.478;5.694;2024-02-28T14:03:04;22.95;;;12.13;;
46675;SDS011;32412;51.478;5.694;2024-02-28T14:05:31;22.67;;;11.45;;
46675;SDS011;32412;51.478;5.694;2024-02-28T14:07:57;18.17;;;10.52;;
46675;SDS011;32412;51.478;5.694;2024-02-28T14:10:23;23.77;;;11.32;;
46675;SDS011;32412;51.478;5.694;2024-02-28T14:12:49;26.60;;;12.75;;
46675;SDS011;32412;51.478;5.694;2024-02-28T14:15:17;17.02;;;9.77;;
46675;SDS011;32412;51.478;5.694;2024-02-28T14:17:47;20.65;;;10.32;;
46675;SDS011;32412;51.478;5.694;2024-02-28T14:20:13;19.35;;;10.15;;
46675;SDS011;32412;51.478;5.694;2024-02-28T14:22:39;19.08;;;10.30;;